createdAt,value
2023-01-09T00:02:40.832Z,5.16
2023-01-09T00:07:45.906Z,5.17
2023-01-09T00:12:53.611Z,5.08
2023-01-09T00:17:58.786Z,5.08
2023-01-09T00:23:03.857Z,5.11
2023-01-09T00:28:11.538Z,5.11
2023-01-09T00:33:16.680Z,5.11
2023-01-09T00:38:21.652Z,5.07
2023-01-09T00:43:36.271Z,5.02
2023-01-09T00:48:44.981Z,4.94
2023-01-09T00:53:51.697Z,4.97
2023-01-09T00:58:59.559Z,4.98
2023-01-09T01:04:25.270Z,5.00
2023-01-09T01:09:30.529Z,4.96
2023-01-09T01:14:38.910Z,5.06
2023-01-09T01:19:43.986Z,5.08
2023-01-09T01:24:49.071Z,4.87
2023-01-09T01:29:56.815Z,4.82
2023-01-09T01:35:01.777Z,4.76
2023-01-09T01:40:08.702Z,4.76
2023-01-09T01:45:19.593Z,4.82
2023-01-09T01:50:40.239Z,4.77
2023-01-09T01:55:51.835Z,4.73
2023-01-09T02:00:59.642Z,4.83
2023-01-09T02:06:05.459Z,4.88
2023-01-09T02:11:13.183Z,4.97
2023-01-09T02:16:36.348Z,4.90
2023-01-09T02:21:52.787Z,5.05
2023-01-09T02:27:28.241Z,5.06
2023-01-09T02:32:48.594Z,5.18
2023-01-09T02:38:05.145Z,5.15
2023-01-09T02:43:11.301Z,5.14
2023-01-09T02:48:18.973Z,5.21
2023-01-09T02:53:56.032Z,5.16
2023-01-09T02:59:18.963Z,5.18
2023-01-09T03:04:38.466Z,5.22
2023-01-09T03:09:45.909Z,5.24
2023-01-09T03:14:53.840Z,5.20
2023-01-09T03:20:05.440Z,5.12
2023-01-09T03:25:13.157Z,5.09
2023-01-09T03:30:18.909Z,5.06
2023-01-09T03:35:26.953Z,4.97
2023-01-09T03:40:31.836Z,4.94
2023-01-09T03:45:37.253Z,4.88
2023-01-09T03:50:47.400Z,4.83
2023-01-09T03:55:54.575Z,4.89
2023-01-09T04:01:02.077Z,4.74
2023-01-09T04:06:10.407Z,4.65
2023-01-09T04:11:17.687Z,4.60
2023-01-09T04:16:22.724Z,4.62
2023-01-09T04:21:30.301Z,4.52
2023-01-09T04:26:35.210Z,4.58
2023-01-09T04:31:40.179Z,4.47
2023-01-09T04:36:47.767Z,4.45
2023-01-09T04:41:52.705Z,4.40
2023-01-09T04:46:59.178Z,4.46
2023-01-09T04:52:07.061Z,4.46
2023-01-09T04:57:12.203Z,4.67
2023-01-09T05:02:17.310Z,4.74
2023-01-09T05:07:47.199Z,4.73
2023-01-09T05:12:55.037Z,4.72
2023-01-09T05:17:59.908Z,4.74
2023-01-09T05:23:05.968Z,4.56
2023-01-09T05:28:13.987Z,4.54
2023-01-09T05:33:18.955Z,4.51
2023-01-09T05:38:23.883Z,4.58
2023-01-09T05:43:31.804Z,4.54
2023-01-09T05:48:38.078Z,4.58
2023-01-09T05:53:43.039Z,4.46
2023-01-09T05:58:50.673Z,4.44
2023-01-09T06:03:56.087Z,4.44
2023-01-09T06:09:03.590Z,4.48
2023-01-09T06:14:11.544Z,4.44
2023-01-09T06:19:17.081Z,4.56
2023-01-09T06:24:22.221Z,4.61
2023-01-09T06:29:32.108Z,4.69
2023-01-09T06:34:37.299Z,4.67
2023-01-09T06:39:42.638Z,4.70
2023-01-09T06:44:50.295Z,4.73
2023-01-09T06:49:57.642Z,4.72
2023-01-09T06:55:02.753Z,5.06
2023-01-09T07:00:11.987Z,4.97
2023-01-09T07:05:17.230Z,4.87
2023-01-09T07:10:22.639Z,4.88
2023-01-09T07:15:30.535Z,4.94
2023-01-09T07:20:38.171Z,5.00
2023-01-09T07:25:43.573Z,5.00
2023-01-09T07:30:51.118Z,5.01
2023-01-09T07:35:56.251Z,5.11
2023-01-09T07:41:01.212Z,5.09
2023-01-09T07:46:09.744Z,5.11
2023-01-09T07:51:14.878Z,5.09
2023-01-09T07:56:20.428Z,5.13
2023-01-09T08:01:30.704Z,5.49
2023-01-09T08:06:38.357Z,5.33
2023-01-09T08:11:43.401Z,5.45
2023-01-09T08:16:51.715Z,5.68
2023-01-09T08:21:56.965Z,5.85
2023-01-09T08:27:03.785Z,5.92
2023-01-09T08:32:11.806Z,5.95
2023-01-09T08:37:16.936Z,6.07
2023-01-09T08:42:35.364Z,6.16
2023-01-09T08:47:46.892Z,6.22
2023-01-09T08:52:55.596Z,6.24
2023-01-09T08:58:00.819Z,6.28
2023-01-09T09:03:08.976Z,6.36
2023-01-09T09:08:13.988Z,6.53
2023-01-09T09:13:18.896Z,6.76
2023-01-09T09:18:28.676Z,6.95
2023-01-09T09:23:34.257Z,7.01
2023-01-09T09:28:39.392Z,7.16
2023-01-09T09:33:47.508Z,7.32
2023-01-09T09:38:58.232Z,7.39
2023-01-09T09:44:35.271Z,7.48
2023-01-09T09:49:52.163Z,7.52
2023-01-09T09:54:59.502Z,7.65
2023-01-09T10:00:06.667Z,7.69
2023-01-09T10:05:29.913Z,7.81
2023-01-09T10:10:44.690Z,7.84
2023-01-09T10:16:00.416Z,7.79
2023-01-09T10:21:15.925Z,7.89
2023-01-09T10:26:30.546Z,7.88
2023-01-09T10:31:48.819Z,7.78
2023-01-09T10:37:05.589Z,7.74
2023-01-09T10:42:20.319Z,7.81
2023-01-09T10:47:30.585Z,7.78
2023-01-09T10:52:46.406Z,7.71
2023-01-09T10:57:57.190Z,7.83
2023-01-09T11:03:02.673Z,7.69
2023-01-09T11:08:24.359Z,7.57
2023-01-09T11:13:33.519Z,7.77
2023-01-09T11:18:42.972Z,7.74
2023-01-09T11:23:53.765Z,7.74
2023-01-09T11:29:09.795Z,8.01
2023-01-09T11:34:22.816Z,7.95
2023-01-09T11:39:33.725Z,8.22
2023-01-09T11:44:40.487Z,8.16
2023-01-09T11:49:46.726Z,8.10
2023-01-09T11:55:05.786Z,7.96
2023-01-09T12:00:28.064Z,8.08
2023-01-09T12:05:44.015Z,8.16
2023-01-09T12:11:13.090Z,8.28
2023-01-09T12:16:31.339Z,8.23
2023-01-09T12:21:37.967Z,8.52
2023-01-09T12:26:54.163Z,8.70
2023-01-09T12:32:14.404Z,8.78
2023-01-09T12:37:52.367Z,8.61
2023-01-09T12:43:10.554Z,8.65
2023-01-09T12:48:29.516Z,8.29
2023-01-09T12:53:39.332Z,8.13
2023-01-09T12:58:52.625Z,8.31
2023-01-09T13:04:07.178Z,8.29
2023-01-09T13:09:23.257Z,8.37
2023-01-09T13:14:42.006Z,8.46
2023-01-09T13:19:50.089Z,8.47
2023-01-09T13:25:26.225Z,8.54
2023-01-09T13:30:52.315Z,8.49
2023-01-09T13:36:00.341Z,8.62
2023-01-09T13:41:24.573Z,8.57
2023-01-09T13:46:43.957Z,8.62
2023-01-09T13:52:01.750Z,8.59
2023-01-09T13:57:33.955Z,8.76
2023-01-09T14:03:00.141Z,8.72
2023-01-09T14:08:07.994Z,8.74
2023-01-09T14:13:18.939Z,8.37
2023-01-09T14:18:30.186Z,8.56
2023-01-09T14:23:51.392Z,8.32
2023-01-09T14:29:25.839Z,8.11
2023-01-09T14:34:41.636Z,8.11
2023-01-09T14:39:55.497Z,8.15
2023-01-09T14:45:06.370Z,8.14
2023-01-09T14:50:20.329Z,8.00
2023-01-09T14:55:30.622Z,8.18
2023-01-09T15:00:38.983Z,8.22
2023-01-09T15:05:50.104Z,8.23
2023-01-09T15:10:57.360Z,8.25
2023-01-09T15:16:03.696Z,8.20
2023-01-09T15:21:21.665Z,8.23
2023-01-09T15:26:29.789Z,8.13
2023-01-09T15:31:39.422Z,8.20
2023-01-09T15:36:49.495Z,8.09
2023-01-09T15:42:07.300Z,7.84
2023-01-09T15:47:20.818Z,7.85
2023-01-09T15:52:31.370Z,7.71
2023-01-09T15:57:36.994Z,7.61
2023-01-09T16:02:59.771Z,7.56
2023-01-09T16:08:08.029Z,7.55
2023-01-09T16:13:16.411Z,7.33
2023-01-09T16:18:33.687Z,7.46
2023-01-09T16:23:42.617Z,7.31
2023-01-09T16:28:47.517Z,7.24
2023-01-09T16:33:59.190Z,7.21
2023-01-09T16:39:08.974Z,7.28
2023-01-09T16:44:14.051Z,7.21
2023-01-09T16:49:21.556Z,7.09
2023-01-09T16:54:31.196Z,6.86
2023-01-09T16:59:36.201Z,7.06
2023-01-09T17:04:41.198Z,7.19
2023-01-09T17:09:49.597Z,7.16
2023-01-09T17:14:58.636Z,7.05
2023-01-09T17:20:07.636Z,7.01
2023-01-09T17:25:29.848Z,6.75
2023-01-09T17:30:36.546Z,6.79
2023-01-09T17:35:41.906Z,6.82
2023-01-09T17:40:49.457Z,7.01
2023-01-09T17:45:56.743Z,6.65
2023-01-09T17:51:02.642Z,6.93
2023-01-09T17:56:18.338Z,7.02
2023-01-09T18:01:27.329Z,6.96
2023-01-09T18:06:32.415Z,6.93
2023-01-09T18:11:44.050Z,7.07
2023-01-09T18:16:48.953Z,7.05
2023-01-09T18:21:54.436Z,7.21
2023-01-09T18:27:02.034Z,7.16
2023-01-09T18:32:08.388Z,6.94
2023-01-09T18:37:13.521Z,7.22
2023-01-09T18:42:23.056Z,6.95
2023-01-09T18:47:28.026Z,6.92
2023-01-09T18:52:36.119Z,6.76
2023-01-09T18:57:46.244Z,7.01
2023-01-09T19:02:51.451Z,7.13
2023-01-09T19:07:57.420Z,7.14
2023-01-09T19:13:07.281Z,7.01
2023-01-09T19:18:12.813Z,7.17
2023-01-09T19:23:19.678Z,7.24
2023-01-09T19:28:28.527Z,7.19
2023-01-09T19:33:33.566Z,7.24
2023-01-09T19:38:39.380Z,7.18
2023-01-09T19:43:50.590Z,7.18
2023-01-09T19:48:59.240Z,7.30
2023-01-09T19:54:07.381Z,7.15
2023-01-09T19:59:18.575Z,7.22
2023-01-09T20:04:25.170Z,7.27
2023-01-09T20:09:30.419Z,7.16
2023-01-09T20:14:38.492Z,7.24
2023-01-09T20:19:46.843Z,7.27
2023-01-09T20:24:52.063Z,7.19
2023-01-09T20:29:59.859Z,7.27
2023-01-09T20:35:05.118Z,7.22
2023-01-09T20:40:11.649Z,7.06
2023-01-09T20:45:19.415Z,7.17
2023-01-09T20:50:25.260Z,7.18
2023-01-09T20:55:33.437Z,7.18
2023-01-09T21:00:41.910Z,7.10
2023-01-09T21:05:48.941Z,6.81
2023-01-09T21:10:58.736Z,6.87
2023-01-09T21:16:10.003Z,6.80
2023-01-09T21:21:16.938Z,7.16
2023-01-09T21:26:24.911Z,7.01
2023-01-09T21:31:36.271Z,6.99
2023-01-09T21:36:41.872Z,7.04
2023-01-09T21:41:59.955Z,7.16
2023-01-09T21:47:07.661Z,7.05
2023-01-09T21:52:13.385Z,7.05
2023-01-09T21:57:20.801Z,6.94
2023-01-09T22:02:28.779Z,6.63
2023-01-09T22:07:33.935Z,6.74
2023-01-09T22:12:59.354Z,6.60
2023-01-09T22:18:07.152Z,6.50
2023-01-09T22:23:13.187Z,6.50
2023-01-09T22:28:25.579Z,6.60
2023-01-09T22:33:34.409Z,6.44
2023-01-09T22:38:40.109Z,6.45
2023-01-09T22:43:45.191Z,6.32
2023-01-09T22:48:52.794Z,6.64
2023-01-09T22:53:57.998Z,6.50
2023-01-09T22:59:02.985Z,6.42
2023-01-09T23:04:16.023Z,6.37
2023-01-09T23:09:20.934Z,6.10
2023-01-09T23:14:25.901Z,6.02
2023-01-09T23:19:33.883Z,6.14
2023-01-09T23:24:40.599Z,6.13
2023-01-09T23:29:47.544Z,6.25
2023-01-09T23:34:56.117Z,6.17
2023-01-09T23:40:03.342Z,6.11
2023-01-09T23:45:09.735Z,6.16
2023-01-09T23:50:19.888Z,6.18
2023-01-09T23:55:28.405Z,6.01
